Coleman, Michigan
Current Conditions -  °F | °C
As of 5:35 PM on Sunday 23 Nov 2014 (Local Time) from KMOP Reporting Station
Drizzle Drizzle  
Wind Chill: 45°   Ceiling: 1600
Heat Index: 48°   Visibility: 7mi
Dew Point: 46°   Wind: 6mph
Humidity: 93%   Direction: 120°ESE
Pressure: 29.58"   Gusts: NA
Location:  43.76°N, 84.59°W
Report Text: KMOP 232235Z AUTO 12005KT 7SM DZ BKN016 OVC030 09/08 A2958 RMK AO2 P0001 T00870077
Loading
Personal Weather Stations






























Interactive Weather Map New forecast layout! Learn more

10-Day Weather Forecast

Advertisements
Track Severe Weather on mobile